sensor_id;sensor_type;location;lat;lon;timestamp;pressure;altitude;pressure_sealevel;temperature;humidity
51315;BME280;65787;59.922;10.742;2023-07-31T00:02:13;99449.22;;;26.70;37.35
51315;BME280;65787;59.922;10.742;2023-07-31T00:04:38;99444.19;;;26.72;37.33
51315;BME280;65787;59.922;10.742;2023-07-31T00:07:04;99448.25;;;26.75;37.36
51315;BME280;65787;59.922;10.742;2023-07-31T00:09:31;99391.09;;;26.37;37.47
51315;BME280;65787;59.922;10.742;2023-07-31T00:11:56;99446.78;;;26.77;37.30
51315;BME280;65787;59.922;10.742;2023-07-31T00:14:21;99448.91;;;26.80;37.35
51315;BME280;65787;59.922;10.742;2023-07-31T00:16:47;99459.75;;;26.68;37.40
51315;BME280;65787;59.922;10.742;2023-07-31T00:19:12;99456.00;;;26.81;37.41
51315;BME280;65787;59.922;10.742;2023-07-31T00:21:37;99452.13;;;26.82;37.50
51315;BME280;65787;59.922;10.742;2023-07-31T00:24:03;99457.81;;;26.77;37.48
51315;BME280;65787;59.922;10.742;2023-07-31T00:26:28;99451.19;;;26.78;37.59
51315;BME280;65787;59.922;10.742;2023-07-31T00:28:53;99454.41;;;26.80;37.57
51315;BME280;65787;59.922;10.742;2023-07-31T00:31:18;99455.03;;;26.86;37.29
51315;BME280;65787;59.922;10.742;2023-07-31T00:33:44;99456.19;;;26.76;37.52
51315;BME280;65787;59.922;10.742;2023-07-31T00:36:09;99452.16;;;26.65;37.63
51315;BME280;65787;59.922;10.742;2023-07-31T00:38:34;99451.03;;;26.75;37.69
51315;BME280;65787;59.922;10.742;2023-07-31T00:40:59;99440.31;;;26.73;37.41
51315;BME280;65787;59.922;10.742;2023-07-31T00:43:25;99449.06;;;26.67;37.38
51315;BME280;65787;59.922;10.742;2023-07-31T00:45:50;99451.97;;;26.70;37.48
51315;BME280;65787;59.922;10.742;2023-07-31T00:48:15;99441.31;;;26.60;37.47
51315;BME280;65787;59.922;10.742;2023-07-31T00:50:41;99452.16;;;26.56;37.89
51315;BME280;65787;59.922;10.742;2023-07-31T00:53:06;99456.34;;;26.54;37.90
51315;BME280;65787;59.922;10.742;2023-07-31T00:55:31;99449.22;;;26.35;37.76
51315;BME280;65787;59.922;10.742;2023-07-31T00:57:57;99448.75;;;26.33;37.86
51315;BME280;65787;59.922;10.742;2023-07-31T01:00:22;99445.84;;;26.47;37.64
51315;BME280;65787;59.922;10.742;2023-07-31T01:02:50;99443.72;;;26.44;37.87
51315;BME280;65787;59.922;10.742;2023-07-31T01:05:17;99434.50;;;26.31;38.07
51315;BME280;65787;59.922;10.742;2023-07-31T01:07:49;99439.03;;;26.18;38.12
51315;BME280;65787;59.922;10.742;2023-07-31T01:10:20;99434.34;;;26.27;38.01
51315;BME280;65787;59.922;10.742;2023-07-31T01:12:47;99434.66;;;26.26;38.20
51315;BME280;65787;59.922;10.742;2023-07-31T01:15:13;99426.22;;;26.31;37.83
51315;BME280;65787;59.922;10.742;2023-07-31T01:17:40;99433.84;;;26.34;37.78
51315;BME280;65787;59.922;10.742;2023-07-31T01:20:05;99433.69;;;26.39;37.83
51315;BME280;65787;59.922;10.742;2023-07-31T01:22:40;99433.34;;;26.41;37.90
51315;BME280;65787;59.922;10.742;2023-07-31T01:27:53;99438.69;;;26.37;38.19
51315;BME280;65787;59.922;10.742;2023-07-31T01:30:24;99431.25;;;26.38;38.01
51315;BME280;65787;59.922;10.742;2023-07-31T01:32:50;99434.34;;;26.36;37.83
51315;BME280;65787;59.922;10.742;2023-07-31T01:35:17;99442.09;;;26.25;38.12
51315;BME280;65787;59.922;10.742;2023-07-31T01:37:43;99438.22;;;26.18;38.14
51315;BME280;65787;59.922;10.742;2023-07-31T01:40:08;99442.94;;;26.17;38.36
51315;BME280;65787;59.922;10.742;2023-07-31T01:42:35;99445.38;;;26.19;38.43
51315;BME280;65787;59.922;10.742;2023-07-31T01:45:00;99444.53;;;26.18;38.17
51315;BME280;65787;59.922;10.742;2023-07-31T01:47:25;99444.38;;;26.15;38.16
51315;BME280;65787;59.922;10.742;2023-07-31T01:49:51;99440.97;;;26.18;38.05
51315;BME280;65787;59.922;10.742;2023-07-31T01:52:16;99442.75;;;26.31;38.22
51315;BME280;65787;59.922;10.742;2023-07-31T01:54:41;99438.72;;;26.29;37.93
51315;BME280;65787;59.922;10.742;2023-07-31T01:57:06;99438.56;;;26.34;38.02
51315;BME280;65787;59.922;10.742;2023-07-31T01:59:32;99440.81;;;26.40;37.59
51315;BME280;65787;59.922;10.742;2023-07-31T02:01:57;99441.94;;;26.31;37.88
51315;BME280;65787;59.922;10.742;2023-07-31T02:04:22;99443.56;;;26.32;37.81
51315;BME280;65787;59.922;10.742;2023-07-31T02:06:48;99446.31;;;26.32;37.82
51315;BME280;65787;59.922;10.742;2023-07-31T02:09:13;99444.19;;;26.37;37.71
51315;BME280;65787;59.922;10.742;2023-07-31T02:11:38;99446.66;;;26.30;37.66
51315;BME280;65787;59.922;10.742;2023-07-31T02:14:03;99442.09;;;26.25;37.79
51315;BME280;65787;59.922;10.742;2023-07-31T02:16:29;99444.84;;;26.17;38.00
51315;BME280;65787;59.922;10.742;2023-07-31T02:18:54;99446.97;;;26.20;37.60
51315;BME280;65787;59.922;10.742;2023-07-31T02:21:19;99443.41;;;26.11;37.67
51315;BME280;65787;59.922;10.742;2023-07-31T02:23:44;99449.38;;;26.13;37.73
51315;BME280;65787;59.922;10.742;2023-07-31T02:26:12;99442.59;;;26.10;38.07
51315;BME280;65787;59.922;10.742;2023-07-31T02:28:37;99444.69;;;26.13;38.04
51315;BME280;65787;59.922;10.742;2023-07-31T02:31:03;99441.13;;;26.13;37.92
51315;BME280;65787;59.922;10.742;2023-07-31T02:33:28;99448.09;;;26.10;38.04
51315;BME280;65787;59.922;10.742;2023-07-31T02:35:53;99444.19;;;26.11;37.94
51315;BME280;65787;59.922;10.742;2023-07-31T02:38:19;99388.78;;;25.78;38.11
51315;BME280;65787;59.922;10.742;2023-07-31T02:40:44;99439.50;;;26.03;37.93
51315;BME280;65787;59.922;10.742;2023-07-31T02:43:09;99443.06;;;26.03;38.20
51315;BME280;65787;59.922;10.742;2023-07-31T02:45:35;99444.03;;;26.07;38.07
51315;BME280;65787;59.922;10.742;2023-07-31T02:48:00;99440.97;;;26.09;38.28
51315;BME280;65787;59.922;10.742;2023-07-31T02:50:25;99447.28;;;26.10;37.90
51315;BME280;65787;59.922;10.742;2023-07-31T02:52:53;99447.44;;;26.13;38.14
51315;BME280;65787;59.922;10.742;2023-07-31T02:55:18;99443.88;;;26.13;38.06
51315;BME280;65787;59.922;10.742;2023-07-31T02:57:43;99458.78;;;26.20;38.12
51315;BME280;65787;59.922;10.742;2023-07-31T03:00:08;99452.94;;;26.22;38.01
51315;BME280;65787;59.922;10.742;2023-07-31T03:02:34;99456.66;;;26.26;38.07
51315;BME280;65787;59.922;10.742;2023-07-31T03:05:00;99446.81;;;26.25;37.84
51315;BME280;65787;59.922;10.742;2023-07-31T03:07:25;99447.13;;;26.23;37.96
51315;BME280;65787;59.922;10.742;2023-07-31T03:09:50;99452.94;;;26.13;38.00
51315;BME280;65787;59.922;10.742;2023-07-31T03:12:15;99449.88;;;26.06;38.33
51315;BME280;65787;59.922;10.742;2023-07-31T03:14:41;99448.56;;;26.03;38.23
51315;BME280;65787;59.922;10.742;2023-07-31T03:17:06;99439.34;;;26.08;37.97
51315;BME280;65787;59.922;10.742;2023-07-31T03:19:31;99445.50;;;26.05;38.01
51315;BME280;65787;59.922;10.742;2023-07-31T03:21:57;99451.47;;;25.98;38.25
51315;BME280;65787;59.922;10.742;2023-07-31T03:24:22;99450.28;;;25.91;38.67
51315;BME280;65787;59.922;10.742;2023-07-31T03:26:48;99444.63;;;25.87;38.52
51315;BME280;65787;59.922;10.742;2023-07-31T03:29:13;99444.44;;;25.83;38.26
51315;BME280;65787;59.922;10.742;2023-07-31T03:31:39;99452.72;;;25.83;38.42
51315;BME280;65787;59.922;10.742;2023-07-31T03:34:04;99449.00;;;25.88;38.25
51315;BME280;65787;59.922;10.742;2023-07-31T03:36:29;99448.34;;;25.82;38.32
51315;BME280;65787;59.922;10.742;2023-07-31T03:38:55;99454.03;;;25.86;38.49
51315;BME280;65787;59.922;10.742;2023-07-31T03:41:20;99450.63;;;25.80;38.60
51315;BME280;65787;59.922;10.742;2023-07-31T03:43:46;99449.78;;;25.71;38.50
51315;BME280;65787;59.922;10.742;2023-07-31T03:46:11;99441.38;;;25.67;38.58
51315;BME280;65787;59.922;10.742;2023-07-31T03:48:36;99443.47;;;25.71;38.59
51315;BME280;65787;59.922;10.742;2023-07-31T03:51:02;99444.91;;;25.68;39.00
51315;BME280;65787;59.922;10.742;2023-07-31T03:53:28;99444.28;;;25.71;38.71
51315;BME280;65787;59.922;10.742;2023-07-31T03:55:53;99447.69;;;25.77;38.80
51315;BME280;65787;59.922;10.742;2023-07-31T03:58:18;99454.13;;;25.72;38.80
51315;BME280;65787;59.922;10.742;2023-07-31T04:00:44;99448.81;;;25.67;38.80
51315;BME280;65787;59.922;10.742;2023-07-31T04:03:09;99452.69;;;25.66;38.30
51315;BME280;65787;59.922;10.742;2023-07-31T04:05:37;99448.63;;;25.63;38.64
51315;BME280;65787;59.922;10.742;2023-07-31T04:08:03;99451.88;;;25.65;38.32
51315;BME280;65787;59.922;10.742;2023-07-31T04:10:28;99457.19;;;25.62;38.48
51315;BME280;65787;59.922;10.742;2023-07-31T04:12:54;99452.50;;;25.62;38.86
51315;BME280;65787;59.922;10.742;2023-07-31T04:15:20;99462.38;;;25.63;38.70
51315;BME280;65787;59.922;10.742;2023-07-31T04:17:45;99450.41;;;25.68;38.89
51315;BME280;65787;59.922;10.742;2023-07-31T04:20:10;99453.19;;;25.77;38.47
51315;BME280;65787;59.922;10.742;2023-07-31T04:22:36;99453.06;;;25.82;38.38
51315;BME280;65787;59.922;10.742;2023-07-31T04:25:01;99449.13;;;25.74;38.65
51315;BME280;65787;59.922;10.742;2023-07-31T04:27:26;99442.69;;;25.79;38.72
51315;BME280;65787;59.922;10.742;2023-07-31T04:29:51;99443.03;;;25.86;38.53
51315;BME280;65787;59.922;10.742;2023-07-31T04:32:17;99444.13;;;25.85;38.12
51315;BME280;65787;59.922;10.742;2023-07-31T04:34:42;99440.59;;;25.84;38.27
51315;BME280;65787;59.922;10.742;2023-07-31T04:37:07;99450.50;;;25.94;38.18
51315;BME280;65787;59.922;10.742;2023-07-31T04:39:33;99442.56;;;26.01;38.14
51315;BME280;65787;59.922;10.742;2023-07-31T04:41:58;99449.53;;;26.07;38.41
51315;BME280;65787;59.922;10.742;2023-07-31T04:44:23;99446.78;;;26.16;38.08
51315;BME280;65787;59.922;10.742;2023-07-31T04:46:49;99444.38;;;26.23;38.10
51315;BME280;65787;59.922;10.742;2023-07-31T04:49:14;99454.25;;;26.24;37.95
51315;BME280;65787;59.922;10.742;2023-07-31T04:51:39;99442.44;;;26.15;37.59
51315;BME280;65787;59.922;10.742;2023-07-31T04:54:04;99445.97;;;25.98;37.72
51315;BME280;65787;59.922;10.742;2023-07-31T04:56:30;99443.56;;;25.97;38.29
51315;BME280;65787;59.922;10.742;2023-07-31T04:58:55;99441.13;;;25.95;38.13
51315;BME280;65787;59.922;10.742;2023-07-31T05:01:21;99444.03;;;25.99;37.68
51315;BME280;65787;59.922;10.742;2023-07-31T05:03:46;99442.75;;;26.05;38.02
51315;BME280;65787;59.922;10.742;2023-07-31T05:06:11;99443.22;;;26.07;37.97
51315;BME280;65787;59.922;10.742;2023-07-31T05:08:38;99449.53;;;26.07;37.77
51315;BME280;65787;59.922;10.742;2023-07-31T05:11:04;99445.97;;;25.98;38.00
51315;BME280;65787;59.922;10.742;2023-07-31T05:13:29;99443.06;;;25.95;37.79
51315;BME280;65787;59.922;10.742;2023-07-31T05:15:54;99452.94;;;26.04;38.03
51315;BME280;65787;59.922;10.742;2023-07-31T05:18:19;99443.09;;;26.21;37.70
51315;BME280;65787;59.922;10.742;2023-07-31T05:20:45;99436.28;;;26.36;37.39
51315;BME280;65787;59.922;10.742;2023-07-31T05:23:10;99446.47;;;26.44;37.37
51315;BME280;65787;59.922;10.742;2023-07-31T05:25:35;99439.53;;;26.38;37.21
51315;BME280;65787;59.922;10.742;2023-07-31T05:28:01;99451.50;;;26.33;37.05
51315;BME280;65787;59.922;10.742;2023-07-31T05:30:26;99445.50;;;26.31;37.30
51315;BME280;65787;59.922;10.742;2023-07-31T05:32:51;99447.13;;;26.32;37.40
51315;BME280;65787;59.922;10.742;2023-07-31T05:35:17;99441.13;;;26.48;37.15
51315;BME280;65787;59.922;10.742;2023-07-31T05:37:42;99445.50;;;26.49;36.71
51315;BME280;65787;59.922;10.742;2023-07-31T05:40:07;99448.75;;;26.24;37.04
51315;BME280;65787;59.922;10.742;2023-07-31T05:42:33;99448.75;;;26.24;36.96
51315;BME280;65787;59.922;10.742;2023-07-31T05:44:58;99449.09;;;26.23;37.17
51315;BME280;65787;59.922;10.742;2023-07-31T05:47:23;99442.75;;;26.14;37.15
51315;BME280;65787;59.922;10.742;2023-07-31T05:49:49;99446.19;;;26.28;37.04
51315;BME280;65787;59.922;10.742;2023-07-31T05:52:16;99444.69;;;26.31;36.81
51315;BME280;65787;59.922;10.742;2023-07-31T05:54:42;99446.81;;;26.34;37.23
51315;BME280;65787;59.922;10.742;2023-07-31T05:57:07;99447.78;;;26.29;36.79
51315;BME280;65787;59.922;10.742;2023-07-31T05:59:32;99454.91;;;26.21;37.24
51315;BME280;65787;59.922;10.742;2023-07-31T06:01:58;99442.13;;;26.34;37.12
51315;BME280;65787;59.922;10.742;2023-07-31T06:04:23;99447.63;;;26.43;37.10
51315;BME280;65787;59.922;10.742;2023-07-31T06:06:50;99438.69;;;26.46;37.02
51315;BME280;65787;59.922;10.742;2023-07-31T06:09:16;99438.69;;;26.72;36.79
51315;BME280;65787;59.922;10.742;2023-07-31T06:11:41;99436.38;;;26.92;36.59
51315;BME280;65787;59.922;10.742;2023-07-31T06:14:06;99431.13;;;27.08;36.58
51315;BME280;65787;59.922;10.742;2023-07-31T06:16:31;99437.19;;;26.92;36.33
51315;BME280;65787;59.922;10.742;2023-07-31T06:18:57;99439.66;;;26.76;36.67
51315;BME280;65787;59.922;10.742;2023-07-31T06:21:22;99434.19;;;26.68;36.75
51315;BME280;65787;59.922;10.742;2023-07-31T06:23:47;99437.56;;;26.73;36.76
51315;BME280;65787;59.922;10.742;2023-07-31T06:26:13;99437.69;;;26.85;36.41
51315;BME280;65787;59.922;10.742;2023-07-31T06:28:39;99438.50;;;26.86;36.33
51315;BME280;65787;59.922;10.742;2023-07-31T06:31:07;99439.94;;;26.92;36.52
51315;BME280;65787;59.922;10.742;2023-07-31T06:33:33;99444.97;;;26.99;35.95
51315;BME280;65787;59.922;10.742;2023-07-31T06:35:58;99448.84;;;26.98;35.96
51315;BME280;65787;59.922;10.742;2023-07-31T06:38:24;99443.25;;;27.15;36.19
51315;BME280;65787;59.922;10.742;2023-07-31T06:40:50;99441.28;;;27.24;36.10
51315;BME280;65787;59.922;10.742;2023-07-31T06:43:15;99436.59;;;27.25;35.88
51315;BME280;65787;59.922;10.742;2023-07-31T06:45:41;99437.91;;;27.28;36.07
51315;BME280;65787;59.922;10.742;2023-07-31T06:48:06;99441.28;;;27.24;35.66
51315;BME280;65787;59.922;10.742;2023-07-31T06:50:32;99449.56;;;27.24;35.77
51315;BME280;65787;59.922;10.742;2023-07-31T06:52:57;99443.63;;;27.14;36.12
51315;BME280;65787;59.922;10.742;2023-07-31T06:55:22;99448.59;;;27.20;35.96
51315;BME280;65787;59.922;10.742;2023-07-31T06:57:50;99457.34;;;27.22;36.36
51315;BME280;65787;59.922;10.742;2023-07-31T07:00:16;99457.34;;;27.31;35.78
51315;BME280;65787;59.922;10.742;2023-07-31T07:02:41;99452.66;;;27.23;35.79
51315;BME280;65787;59.922;10.742;2023-07-31T07:05:07;99453.13;;;27.34;35.77
51315;BME280;65787;59.922;10.742;2023-07-31T07:07:33;99457.03;;;27.24;35.72
51315;BME280;65787;59.922;10.742;2023-07-31T07:09:58;99465.00;;;27.26;35.52
51315;BME280;65787;59.922;10.742;2023-07-31T07:12:29;99464.28;;;27.37;35.86
51315;BME280;65787;59.922;10.742;2023-07-31T07:14:54;99466.44;;;27.32;35.44
51315;BME280;65787;59.922;10.742;2023-07-31T07:17:19;99467.19;;;27.41;35.94
51315;BME280;65787;59.922;10.742;2023-07-31T07:19:45;99463.88;;;27.27;35.48
51315;BME280;65787;59.922;10.742;2023-07-31T07:22:10;99453.47;;;27.23;35.60
51315;BME280;65787;59.922;10.742;2023-07-31T07:24:36;99456.84;;;27.38;35.00
51315;BME280;65787;59.922;10.742;2023-07-31T07:27:01;99459.16;;;27.27;34.67
51315;BME280;65787;59.922;10.742;2023-07-31T07:29:26;99460.53;;;27.51;35.22
51315;BME280;65787;59.922;10.742;2023-07-31T07:31:52;99460.22;;;27.44;34.82
51315;BME280;65787;59.922;10.742;2023-07-31T07:34:17;99456.44;;;27.57;35.42
51315;BME280;65787;59.922;10.742;2023-07-31T07:36:42;99461.47;;;27.55;34.85
51315;BME280;65787;59.922;10.742;2023-07-31T07:39:09;99462.75;;;27.57;34.88
51315;BME280;65787;59.922;10.742;2023-07-31T07:41:34;99465.78;;;27.35;34.47
51315;BME280;65787;59.922;10.742;2023-07-31T07:44:00;99466.09;;;27.33;35.08
51315;BME280;65787;59.922;10.742;2023-07-31T07:46:25;99465.78;;;27.35;34.95
51315;BME280;65787;59.922;10.742;2023-07-31T07:48:51;99459.38;;;27.52;35.01
51315;BME280;65787;59.922;10.742;2023-07-31T07:51:16;99472.34;;;27.51;34.66
51315;BME280;65787;59.922;10.742;2023-07-31T07:53:41;99466.38;;;27.49;34.52
51315;BME280;65787;59.922;10.742;2023-07-31T07:56:07;99473.00;;;27.48;34.49
51315;BME280;65787;59.922;10.742;2023-07-31T07:58:32;99465.81;;;27.65;35.15
51315;BME280;65787;59.922;10.742;2023-07-31T08:00:57;99465.75;;;27.73;34.08
51315;BME280;65787;59.922;10.742;2023-07-31T08:03:22;99464.53;;;27.92;34.34
51315;BME280;65787;59.922;10.742;2023-07-31T08:05:51;99460.53;;;28.10;34.33
51315;BME280;65787;59.922;10.742;2023-07-31T08:08:17;99477.00;;;28.19;33.71
51315;BME280;65787;59.922;10.742;2023-07-31T08:10:42;99475.91;;;28.32;34.25
51315;BME280;65787;59.922;10.742;2023-07-31T08:13:09;99478.00;;;28.35;33.97
51315;BME280;65787;59.922;10.742;2023-07-31T08:15:34;99474.13;;;28.36;33.93
51315;BME280;65787;59.922;10.742;2023-07-31T08:17:59;99479.91;;;28.44;34.24
51315;BME280;65787;59.922;10.742;2023-07-31T08:20:26;99473.84;;;28.50;33.75
51315;BME280;65787;59.922;10.742;2023-07-31T08:22:51;99464.53;;;28.34;33.07
51315;BME280;65787;59.922;10.742;2023-07-31T08:25:20;99473.91;;;28.42;33.52
51315;BME280;65787;59.922;10.742;2023-07-31T08:27:45;99468.06;;;28.64;33.17
51315;BME280;65787;59.922;10.742;2023-07-31T08:30:11;99466.56;;;28.67;32.59
51315;BME280;65787;59.922;10.742;2023-07-31T08:32:36;99464.66;;;28.80;33.54
51315;BME280;65787;59.922;10.742;2023-07-31T08:35:02;99460.38;;;28.70;31.92
51315;BME280;65787;59.922;10.742;2023-07-31T08:37:27;99457.25;;;28.71;32.30
51315;BME280;65787;59.922;10.742;2023-07-31T08:39:53;99459.66;;;28.73;32.30
51315;BME280;65787;59.922;10.742;2023-07-31T08:42:19;99458.47;;;28.83;32.96
51315;BME280;65787;59.922;10.742;2023-07-31T08:44:45;99461.38;;;28.99;33.08
51315;BME280;65787;59.922;10.742;2023-07-31T08:47:11;99461.81;;;29.01;32.46
51315;BME280;65787;59.922;10.742;2023-07-31T08:49:37;99461.81;;;29.01;32.27
51315;BME280;65787;59.922;10.742;2023-07-31T08:52:03;99461.06;;;29.12;32.63
51315;BME280;65787;59.922;10.742;2023-07-31T08:54:29;99462.00;;;29.17;33.02
51315;BME280;65787;59.922;10.742;2023-07-31T08:56:56;99467.53;;;29.17;32.01
51315;BME280;65787;59.922;10.742;2023-07-31T08:59:22;99460.94;;;29.09;32.15
51315;BME280;65787;59.922;10.742;2023-07-31T09:01:49;99453.31;;;29.06;32.46
51315;BME280;65787;59.922;10.742;2023-07-31T09:04:15;99459.09;;;29.13;32.38
51315;BME280;65787;59.922;10.742;2023-07-31T09:06:41;99457.34;;;29.08;32.21
51315;BME280;65787;59.922;10.742;2023-07-31T09:09:07;99466.75;;;29.16;32.53
51315;BME280;65787;59.922;10.742;2023-07-31T09:11:32;99461.63;;;29.06;32.91
51315;BME280;65787;59.922;10.742;2023-07-31T09:13:58;99459.53;;;29.03;32.85
51315;BME280;65787;59.922;10.742;2023-07-31T09:16:29;99456.94;;;29.19;32.48
51315;BME280;65787;59.922;10.742;2023-07-31T09:18:59;99461.69;;;29.18;32.12
51315;BME280;65787;59.922;10.742;2023-07-31T09:21:27;99460.88;;;29.30;31.59
51315;BME280;65787;59.922;10.742;2023-07-31T09:23:53;99468.13;;;29.34;31.35
51315;BME280;65787;59.922;10.742;2023-07-31T09:26:32;99467.66;;;29.32;32.51
51315;BME280;65787;59.922;10.742;2023-07-31T09:28:58;99471.13;;;29.42;31.33
51315;BME280;65787;59.922;10.742;2023-07-31T09:31:40;99475.41;;;29.51;31.33
51315;BME280;65787;59.922;10.742;2023-07-31T09:34:06;99472.19;;;29.49;30.27
51315;BME280;65787;59.922;10.742;2023-07-31T09:36:31;99480.72;;;29.44;30.51
51315;BME280;65787;59.922;10.742;2023-07-31T09:39:03;99472.19;;;29.37;30.98
51315;BME280;65787;59.922;10.742;2023-07-31T09:41:30;99472.63;;;29.39;31.49
51315;BME280;65787;59.922;10.742;2023-07-31T09:43:55;99475.50;;;29.30;31.73
51315;BME280;65787;59.922;10.742;2023-07-31T09:46:21;99471.44;;;29.15;31.46
51315;BME280;65787;59.922;10.742;2023-07-31T09:48:46;99471.94;;;29.30;31.61
51315;BME280;65787;59.922;10.742;2023-07-31T09:51:12;99474.97;;;29.49;31.92
51315;BME280;65787;59.922;10.742;2023-07-31T09:53:37;99479.31;;;29.38;30.49
51315;BME280;65787;59.922;10.742;2023-07-31T09:56:02;99467.47;;;29.50;31.17
51315;BME280;65787;59.922;10.742;2023-07-31T09:58:29;99471.59;;;29.68;31.52
51315;BME280;65787;59.922;10.742;2023-07-31T10:00:55;99473.81;;;29.87;31.44
51315;BME280;65787;59.922;10.742;2023-07-31T10:03:22;99470.94;;;29.84;31.57
51315;BME280;65787;59.922;10.742;2023-07-31T10:05:49;99471.97;;;29.79;31.07
51315;BME280;65787;59.922;10.742;2023-07-31T10:08:15;99471.63;;;29.81;30.02
51315;BME280;65787;59.922;10.742;2023-07-31T10:10:41;99473.56;;;29.56;30.36
51315;BME280;65787;59.922;10.742;2023-07-31T10:13:07;99476.09;;;29.48;30.75
51315;BME280;65787;59.922;10.742;2023-07-31T10:15:33;99469.31;;;29.46;30.50
51315;BME280;65787;59.922;10.742;2023-07-31T10:17:59;99481.63;;;29.36;29.94
51315;BME280;65787;59.922;10.742;2023-07-31T10:20:25;99479.41;;;29.17;30.77
51315;BME280;65787;59.922;10.742;2023-07-31T10:22:51;99480.44;;;28.79;30.65
51315;BME280;65787;59.922;10.742;2023-07-31T10:25:16;99478.09;;;28.48;31.71
51315;BME280;65787;59.922;10.742;2023-07-31T10:27:43;99468.59;;;28.36;31.91
51315;BME280;65787;59.922;10.742;2023-07-31T10:30:10;99460.78;;;28.38;31.96
51315;BME280;65787;59.922;10.742;2023-07-31T10:32:37;99464.00;;;28.41;32.29
51315;BME280;65787;59.922;10.742;2023-07-31T10:35:03;99463.34;;;28.44;32.31
51315;BME280;65787;59.922;10.742;2023-07-31T10:37:29;99461.84;;;28.46;32.71
51315;BME280;65787;59.922;10.742;2023-07-31T10:39:58;99460.72;;;28.68;32.28
51315;BME280;65787;59.922;10.742;2023-07-31T10:42:28;99456.97;;;28.85;32.07
51315;BME280;65787;59.922;10.742;2023-07-31T10:44:58;99459.41;;;28.99;32.03
51315;BME280;65787;59.922;10.742;2023-07-31T10:47:24;99460.16;;;29.21;32.52
51315;BME280;65787;59.922;10.742;2023-07-31T10:49:49;99462.72;;;29.26;32.11
51315;BME280;65787;59.922;10.742;2023-07-31T10:52:19;99461.59;;;29.51;32.63
51315;BME280;65787;59.922;10.742;2023-07-31T10:54:47;99457.09;;;29.84;32.09
51315;BME280;65787;59.922;10.742;2023-07-31T10:57:20;99452.38;;;30.25;31.71
51315;BME280;65787;59.922;10.742;2023-07-31T10:59:45;99457.31;;;30.44;31.74
51315;BME280;65787;59.922;10.742;2023-07-31T11:02:23;99470.03;;;30.61;30.20
51315;BME280;65787;59.922;10.742;2023-07-31T11:05:05;99459.88;;;31.09;30.00
51315;BME280;65787;59.922;10.742;2023-07-31T11:07:46;99460.28;;;31.39;28.83
51315;BME280;65787;59.922;10.742;2023-07-31T11:10:16;99457.66;;;31.47;29.87
51315;BME280;65787;59.922;10.742;2023-07-31T11:12:41;99456.66;;;31.39;27.72
51315;BME280;65787;59.922;10.742;2023-07-31T11:15:09;99455.25;;;31.29;28.21
51315;BME280;65787;59.922;10.742;2023-07-31T11:17:39;99448.97;;;31.00;28.67
51315;BME280;65787;59.922;10.742;2023-07-31T11:20:05;99421.72;;;30.46;28.06
51315;BME280;65787;59.922;10.742;2023-07-31T11:22:31;99459.28;;;30.43;27.28
51315;BME280;65787;59.922;10.742;2023-07-31T11:24:57;99465.56;;;30.16;29.15
51315;BME280;65787;59.922;10.742;2023-07-31T11:27:23;99473.47;;;29.77;29.58
51315;BME280;65787;59.922;10.742;2023-07-31T11:29:50;99478.31;;;29.80;34.89
51315;BME280;65787;59.922;10.742;2023-07-31T11:32:16;99485.66;;;29.39;37.88
51315;BME280;65787;59.922;10.742;2023-07-31T11:34:52;99488.19;;;28.65;38.66
51315;BME280;65787;59.922;10.742;2023-07-31T11:37:17;99499.47;;;27.79;39.39
51315;BME280;65787;59.922;10.742;2023-07-31T11:39:43;99492.56;;;27.26;40.16
51315;BME280;65787;59.922;10.742;2023-07-31T11:42:09;99482.44;;;26.56;41.84
51315;BME280;65787;59.922;10.742;2023-07-31T11:44:41;99478.97;;;25.98;43.33
51315;BME280;65787;59.922;10.742;2023-07-31T11:47:12;99483.69;;;25.49;44.14
51315;BME280;65787;59.922;10.742;2023-07-31T11:49:38;99489.97;;;25.49;43.04
51315;BME280;65787;59.922;10.742;2023-07-31T11:52:04;99487.31;;;25.67;44.11
51315;BME280;65787;59.922;10.742;2023-07-31T11:54:29;99482.75;;;25.62;44.19
51315;BME280;65787;59.922;10.742;2023-07-31T11:56:55;99500.84;;;25.55;43.58
51315;BME280;65787;59.922;10.742;2023-07-31T11:59:22;99490.44;;;25.43;43.65
51315;BME280;65787;59.922;10.742;2023-07-31T12:01:48;99488.03;;;25.41;43.60
51315;BME280;65787;59.922;10.742;2023-07-31T12:04:18;99480.97;;;25.66;43.59
51315;BME280;65787;59.922;10.742;2023-07-31T12:06:46;99484.16;;;26.00;42.99
51315;BME280;65787;59.922;10.742;2023-07-31T12:09:11;99478.38;;;26.19;43.00
51315;BME280;65787;59.922;10.742;2023-07-31T12:11:45;99482.59;;;26.34;42.97
51315;BME280;65787;59.922;10.742;2023-07-31T12:14:20;99474.81;;;26.44;42.94
51315;BME280;65787;59.922;10.742;2023-07-31T12:16:47;99473.06;;;26.49;42.82
51315;BME280;65787;59.922;10.742;2023-07-31T12:19:12;99481.31;;;26.40;42.61
51315;BME280;65787;59.922;10.742;2023-07-31T12:21:37;99480.81;;;26.46;43.40
51315;BME280;65787;59.922;10.742;2023-07-31T12:24:03;99486.66;;;26.62;43.19
51315;BME280;65787;59.922;10.742;2023-07-31T12:26:33;99478.88;;;26.73;43.15
51315;BME280;65787;59.922;10.742;2023-07-31T12:28:59;99483.41;;;26.87;43.13
51315;BME280;65787;59.922;10.742;2023-07-31T12:31:25;99472.00;;;27.06;43.56
51315;BME280;65787;59.922;10.742;2023-07-31T12:33:52;99471.19;;;27.14;42.78
51315;BME280;65787;59.922;10.742;2023-07-31T12:36:18;99465.13;;;27.38;43.02
51315;BME280;65787;59.922;10.742;2023-07-31T12:38:45;99461.63;;;27.58;42.83
51315;BME280;65787;59.922;10.742;2023-07-31T12:41:10;99461.66;;;27.79;42.52
51315;BME280;65787;59.922;10.742;2023-07-31T12:43:37;99457.69;;;27.98;42.54
51315;BME280;65787;59.922;10.742;2023-07-31T12:46:02;99451.63;;;28.05;42.50
51315;BME280;65787;59.922;10.742;2023-07-31T12:48:28;99446.59;;;28.07;42.12